Terminal Aerodrome Forecast
Issued by NWS Goodland, KS

Home | Current Version | Previous Version | Text Only | Print | Product List | Glossary On
Versions: 1 2 3 4 5 6 7 8 9 10 11 12 13 14 15 16 17 18 19 20 21 22 23 24
460
FTUS43 KGLD 262321
TAFGLD
TAF
KGLD 262321Z 2700/2724 01015G23KT P6SM FEW080
     FM270100 36010KT P6SM SKC
     FM270400 VRB06KT P6SM SKC
     FM271000 25007KT P6SM SKC
     FM271700 29008KT P6SM SKC
     FM272100 VRB04KT P6SM SKC=

USA.gov is the U.S. government's official web portal to all federal, state and local government web resources and services.